createdAt,value
2023-05-23T00:01:06.192Z,1.50
2023-05-23T00:03:37.707Z,1.40
2023-05-23T00:06:08.265Z,2.00
2023-05-23T00:08:38.348Z,1.70
2023-05-23T00:11:12.966Z,1.50
2023-05-23T00:13:53.346Z,2.13
2023-05-23T00:16:23.890Z,1.87
2023-05-23T00:18:54.658Z,1.70
2023-05-23T00:21:25.567Z,1.73
2023-05-23T00:23:56.856Z,2.30
2023-05-23T00:26:32.871Z,1.48
2023-05-23T00:29:03.522Z,1.50
2023-05-23T00:31:34.236Z,1.70
2023-05-23T00:34:10.232Z,1.27
2023-05-23T00:36:44.059Z,1.57
2023-05-23T00:39:29.788Z,2.13
2023-05-23T00:42:05.334Z,2.23
2023-05-23T00:44:38.299Z,2.03
2023-05-23T00:47:09.926Z,2.27
2023-05-23T00:49:44.501Z,1.75
2023-05-23T00:52:20.841Z,1.07
2023-05-23T00:55:04.679Z,1.40
2023-05-23T00:57:43.630Z,1.63
2023-05-23T01:00:20.299Z,1.70
2023-05-23T01:02:52.673Z,2.10
2023-05-23T01:08:13.155Z,1.87
2023-05-23T01:11:00.032Z,2.03
2023-05-23T01:14:00.948Z,1.40
2023-05-23T01:17:04.818Z,2.20
2023-05-23T01:20:07.498Z,1.07
2023-05-23T01:23:08.588Z,1.70
2023-05-23T01:26:29.183Z,1.57
2023-05-23T01:29:13.237Z,1.53
2023-05-23T01:31:47.377Z,1.80
2023-05-23T01:34:22.060Z,1.80
2023-05-23T01:37:02.762Z,1.40
2023-05-23T01:39:34.064Z,1.20
2023-05-23T01:42:18.635Z,1.65
2023-05-23T01:45:05.230Z,1.57
2023-05-23T01:47:37.197Z,1.07
2023-05-23T01:50:20.610Z,1.43
2023-05-23T01:52:54.597Z,1.97
2023-05-23T01:55:33.840Z,1.67
2023-05-23T01:58:17.534Z,1.60
2023-05-23T02:00:56.815Z,1.60
2023-05-23T02:03:37.063Z,1.53
2023-05-23T02:06:17.075Z,1.88
2023-05-23T02:08:50.875Z,2.30
2023-05-23T02:11:26.975Z,1.67
2023-05-23T02:14:10.629Z,1.57
2023-05-23T02:16:50.476Z,1.90
2023-05-23T02:19:25.374Z,1.47
2023-05-23T02:22:01.021Z,2.53
2023-05-23T02:24:46.476Z,2.57
2023-05-23T02:27:18.218Z,1.87
2023-05-23T02:29:52.827Z,2.05
2023-05-23T02:32:27.624Z,2.17
2023-05-23T02:34:58.381Z,2.23
2023-05-23T02:37:30.368Z,2.20
2023-05-23T02:40:07.243Z,2.20
2023-05-23T02:42:44.196Z,2.20
2023-05-23T02:45:15.261Z,2.30
2023-05-23T02:47:47.363Z,1.92
2023-05-23T02:50:26.458Z,1.97
2023-05-23T02:53:00.395Z,2.03
2023-05-23T02:55:36.295Z,1.90
2023-05-23T02:58:06.174Z,1.27
2023-05-23T03:00:37.066Z,2.63
2023-05-23T03:03:12.039Z,1.80
2023-05-23T03:05:43.624Z,1.83
2023-05-23T03:08:20.698Z,2.20
2023-05-23T03:10:54.138Z,2.67
2023-05-23T03:13:27.914Z,1.93
2023-05-23T03:16:11.453Z,1.63
2023-05-23T03:18:43.524Z,1.60
2023-05-23T03:21:15.635Z,1.67
2023-05-23T03:23:58.274Z,1.40
2023-05-23T03:26:40.481Z,1.73
2023-05-23T03:29:11.789Z,1.70
2023-05-23T03:31:49.335Z,2.25
2023-05-23T03:34:34.068Z,1.50
2023-05-23T03:37:04.690Z,1.60
2023-05-23T03:39:36.878Z,1.80
2023-05-23T03:42:06.838Z,2.27
2023-05-23T03:44:37.339Z,1.93
2023-05-23T03:47:14.100Z,1.90
2023-05-23T03:49:54.943Z,1.90
2023-05-23T03:52:43.647Z,2.23
2023-05-23T03:55:17.618Z,2.20
2023-05-23T03:57:47.946Z,1.80
2023-05-23T04:00:19.558Z,2.47
2023-05-23T04:03:00.181Z,2.50
2023-05-23T04:05:33.947Z,1.83
2023-05-23T04:08:07.725Z,2.43
2023-05-23T04:10:44.893Z,1.83
2023-05-23T04:13:36.331Z,2.30
2023-05-23T04:16:11.636Z,2.10
2023-05-23T04:18:53.956Z,2.00
2023-05-23T04:21:28.013Z,2.43
2023-05-23T04:24:19.001Z,1.80
2023-05-23T04:26:48.117Z,1.90
2023-05-23T04:29:28.738Z,2.03
2023-05-23T04:31:58.829Z,2.30
2023-05-23T04:34:37.624Z,2.47
2023-05-23T04:37:15.683Z,2.57
2023-05-23T04:39:46.043Z,2.30
2023-05-23T04:42:40.021Z,2.60
2023-05-23T04:45:35.001Z,2.33
2023-05-23T04:51:12.807Z,2.53
2023-05-23T04:54:28.057Z,2.35
2023-05-23T04:57:03.090Z,2.23
2023-05-23T04:59:50.738Z,2.47
2023-05-23T05:02:24.653Z,2.33
2023-05-23T05:07:32.606Z,2.73
2023-05-23T05:10:07.709Z,3.20
2023-05-23T05:12:41.307Z,2.80
2023-05-23T05:15:12.570Z,2.63
2023-05-23T05:17:50.313Z,2.67
2023-05-23T05:20:27.614Z,3.17
2023-05-23T05:23:01.907Z,2.90
2023-05-23T05:25:36.537Z,2.13
2023-05-23T05:28:20.357Z,2.57
2023-05-23T05:31:08.305Z,3.23
2023-05-23T05:33:45.269Z,3.00
2023-05-23T05:36:20.521Z,2.87
2023-05-23T05:39:06.777Z,2.73
2023-05-23T05:41:49.081Z,3.07
2023-05-23T05:44:33.974Z,2.83
2023-05-23T05:47:04.609Z,3.23
2023-05-23T05:49:38.651Z,3.28
2023-05-23T05:52:09.736Z,3.10
2023-05-23T05:54:41.661Z,3.65
2023-05-23T05:57:15.068Z,2.47
2023-05-23T05:59:50.524Z,2.60
2023-05-23T06:05:07.963Z,2.30
2023-05-23T06:07:45.545Z,2.23
2023-05-23T06:10:17.012Z,2.77
2023-05-23T06:13:06.411Z,2.30
2023-05-23T06:15:43.817Z,2.53
2023-05-23T06:18:24.801Z,3.37
2023-05-23T06:21:14.776Z,2.17
2023-05-23T06:23:50.742Z,2.80
2023-05-23T06:26:21.489Z,2.17
2023-05-23T06:28:50.940Z,2.53
2023-05-23T06:31:22.398Z,2.53
2023-05-23T06:33:52.048Z,2.60
2023-05-23T06:36:23.284Z,2.33
2023-05-23T06:38:56.236Z,2.15
2023-05-23T06:41:29.726Z,2.10
2023-05-23T06:44:03.267Z,2.80
2023-05-23T06:46:34.378Z,2.60
2023-05-23T06:52:03.523Z,2.53
2023-05-23T06:57:15.330Z,2.30
2023-05-23T06:59:50.000Z,2.30
2023-05-23T07:02:26.716Z,2.10
2023-05-23T07:05:00.387Z,2.38
2023-05-23T07:08:05.126Z,2.13
2023-05-23T07:10:37.473Z,2.80
2023-05-23T07:13:25.353Z,2.45
2023-05-23T07:15:58.958Z,2.35
2023-05-23T07:18:31.918Z,2.00
2023-05-23T07:23:51.465Z,2.17
2023-05-23T07:26:34.681Z,2.47
2023-05-23T07:29:08.346Z,1.73
2023-05-23T07:31:40.367Z,2.15
2023-05-23T07:34:22.132Z,1.90
2023-05-23T07:37:00.194Z,2.08
2023-05-23T07:39:41.139Z,2.10
2023-05-23T07:42:11.745Z,2.38
2023-05-23T07:44:47.582Z,1.90
2023-05-23T07:47:18.266Z,2.50
2023-05-23T07:49:47.967Z,2.17
2023-05-23T07:52:25.140Z,2.10
2023-05-23T07:55:01.179Z,2.17
2023-05-23T07:57:32.016Z,1.65
2023-05-23T08:00:03.514Z,2.40
2023-05-23T08:02:53.992Z,2.45
2023-05-23T08:05:30.842Z,1.63
2023-05-23T08:08:10.066Z,2.00
2023-05-23T08:10:44.718Z,2.35
2023-05-23T08:13:25.156Z,2.20
2023-05-23T08:16:19.167Z,2.33
2023-05-23T08:21:44.830Z,2.30
2023-05-23T08:24:23.536Z,2.55
2023-05-23T08:26:59.529Z,2.10
2023-05-23T08:29:35.899Z,2.08
2023-05-23T08:32:06.668Z,2.30
2023-05-23T08:34:48.913Z,1.83
2023-05-23T08:37:30.058Z,2.42
2023-05-23T08:40:07.492Z,2.10
2023-05-23T08:45:40.082Z,2.40
2023-05-23T08:48:26.502Z,2.25
2023-05-23T08:51:09.320Z,1.83
2023-05-23T08:53:47.408Z,2.15
2023-05-23T08:56:28.567Z,1.90
2023-05-23T08:59:05.027Z,1.80
2023-05-23T09:01:39.856Z,2.05
2023-05-23T09:04:18.212Z,1.88
2023-05-23T09:06:55.700Z,2.15
2023-05-23T09:09:26.988Z,2.00
2023-05-23T09:12:02.586Z,1.85
2023-05-23T09:14:39.240Z,2.10
2023-05-23T09:17:19.063Z,1.73
2023-05-23T09:22:50.397Z,1.70
2023-05-23T09:25:26.541Z,1.83
2023-05-23T09:28:02.676Z,1.67
2023-05-23T09:30:36.051Z,1.60
2023-05-23T09:33:07.754Z,1.98
2023-05-23T09:38:34.447Z,1.38
2023-05-23T09:41:16.771Z,1.75
2023-05-23T09:43:58.659Z,2.03
2023-05-23T09:46:30.415Z,2.60
2023-05-23T09:49:01.264Z,1.90
2023-05-23T09:51:42.676Z,1.70
2023-05-23T09:54:13.596Z,1.73
2023-05-23T09:56:53.162Z,1.77
2023-05-23T09:59:31.085Z,1.60
2023-05-23T10:02:15.507Z,1.95
2023-05-23T10:04:55.162Z,1.75
2023-05-23T10:07:28.520Z,1.48
2023-05-23T10:10:15.108Z,1.52
2023-05-23T10:13:05.153Z,2.03
2023-05-23T10:15:43.126Z,1.52
2023-05-23T10:18:25.265Z,1.20
2023-05-23T10:21:03.940Z,1.25
2023-05-23T10:23:34.871Z,1.30
2023-05-23T10:26:08.488Z,1.48
2023-05-23T10:28:54.817Z,1.88
2023-05-23T10:31:36.373Z,1.20
2023-05-23T10:34:24.444Z,1.35
2023-05-23T10:37:14.244Z,1.55
2023-05-23T10:40:03.711Z,1.60
2023-05-23T10:42:57.704Z,1.70
2023-05-23T10:45:30.414Z,1.40
2023-05-23T10:48:05.899Z,1.55
2023-05-23T10:50:39.819Z,1.50
2023-05-23T10:53:14.149Z,1.33
2023-05-23T10:55:58.597Z,1.80
2023-05-23T10:58:33.381Z,2.13
2023-05-23T11:01:04.029Z,1.48
2023-05-23T11:03:56.211Z,1.35
2023-05-23T11:06:49.718Z,1.27
2023-05-23T11:09:24.502Z,1.38
2023-05-23T11:12:00.510Z,1.75
2023-05-23T11:15:00.105Z,1.38
2023-05-23T11:20:23.587Z,1.88
2023-05-23T11:23:15.702Z,1.30
2023-05-23T11:26:05.448Z,1.17
2023-05-23T11:28:59.138Z,1.50
2023-05-23T11:31:42.552Z,0.85
2023-05-23T11:34:14.162Z,1.25
2023-05-23T11:36:43.609Z,1.50
2023-05-23T11:39:14.361Z,1.55
2023-05-23T11:41:46.977Z,1.55
2023-05-23T11:44:17.169Z,1.77
2023-05-23T11:47:03.783Z,1.27
2023-05-23T11:49:36.819Z,1.45
2023-05-23T11:52:14.385Z,0.95
2023-05-23T11:54:55.304Z,1.73
2023-05-23T11:57:35.210Z,1.00
2023-05-23T12:00:06.994Z,1.20
2023-05-23T12:02:52.255Z,0.85
2023-05-23T12:05:31.478Z,1.20
2023-05-23T12:08:03.390Z,1.30
2023-05-23T12:10:41.702Z,1.08
2023-05-23T12:13:21.061Z,0.77
2023-05-23T12:15:57.468Z,3.80
2023-05-23T12:18:37.762Z,1.75
2023-05-23T12:21:21.658Z,1.38
2023-05-23T12:24:07.171Z,1.50
2023-05-23T12:26:52.039Z,1.33
2023-05-23T12:29:42.219Z,1.50
2023-05-23T12:32:16.318Z,1.20
2023-05-23T12:34:54.332Z,0.68
2023-05-23T12:37:27.831Z,1.02
2023-05-23T12:39:59.096Z,1.30
2023-05-23T12:42:32.606Z,1.27
2023-05-23T12:47:47.729Z,1.30
2023-05-23T12:50:19.848Z,1.08
2023-05-23T12:52:53.361Z,0.80
2023-05-23T12:55:23.201Z,1.08
2023-05-23T12:57:50.990Z,0.52
2023-05-23T13:00:39.153Z,0.85
2023-05-23T13:03:10.673Z,1.02
2023-05-23T13:05:40.565Z,1.10
2023-05-23T13:08:15.249Z,1.20
2023-05-23T13:13:30.629Z,1.20
2023-05-23T13:16:04.965Z,1.05
2023-05-23T13:18:33.433Z,1.02
2023-05-23T13:21:05.082Z,1.10
2023-05-23T13:23:45.751Z,0.85
2023-05-23T13:26:15.711Z,0.80
2023-05-23T13:28:53.863Z,0.65
2023-05-23T13:31:25.168Z,1.23
2023-05-23T13:39:11.558Z,0.68
2023-05-23T13:44:25.548Z,1.10
2023-05-23T13:49:33.016Z,1.25
2023-05-23T13:52:23.278Z,1.20
2023-05-23T13:54:54.303Z,1.23
2023-05-23T13:57:32.648Z,1.50
2023-05-23T14:00:03.167Z,0.98
2023-05-23T14:02:55.588Z,1.17
2023-05-23T14:05:29.697Z,1.08
2023-05-23T14:08:02.521Z,1.20
2023-05-23T14:10:33.965Z,1.20
2023-05-23T14:13:09.021Z,1.08
2023-05-23T14:15:41.626Z,1.30
2023-05-23T14:18:19.949Z,0.90
2023-05-23T14:20:51.501Z,0.95
2023-05-23T14:23:20.853Z,1.42
2023-05-23T14:25:49.070Z,1.17
2023-05-23T14:31:09.282Z,1.35
2023-05-23T14:33:39.938Z,1.33
2023-05-23T14:36:14.173Z,1.30
2023-05-23T14:38:49.462Z,1.40
2023-05-23T14:41:23.554Z,1.00
2023-05-23T14:43:57.228Z,1.15
2023-05-23T14:46:28.575Z,1.63
2023-05-23T14:49:06.480Z,1.00
2023-05-23T14:51:48.575Z,1.50
2023-05-23T14:54:20.953Z,1.55
2023-05-23T14:56:54.223Z,1.85
2023-05-23T14:59:38.009Z,2.15
2023-05-23T15:02:09.655Z,2.22
2023-05-23T15:07:32.737Z,1.67
2023-05-23T15:10:05.229Z,1.67
2023-05-23T15:12:38.744Z,1.45
2023-05-23T15:15:13.255Z,1.50
2023-05-23T15:17:46.207Z,1.55
2023-05-23T15:20:25.246Z,1.73
2023-05-23T15:23:05.118Z,1.67
2023-05-23T15:25:49.338Z,1.80
2023-05-23T15:28:24.358Z,1.52
2023-05-23T15:31:00.271Z,1.42
2023-05-23T15:33:37.747Z,1.33
2023-05-23T15:36:08.546Z,1.48
2023-05-23T15:38:39.222Z,1.40
2023-05-23T15:41:10.825Z,1.33
2023-05-23T15:43:43.609Z,1.88
2023-05-23T15:46:14.087Z,1.42
2023-05-23T15:48:54.578Z,1.57
2023-05-23T15:51:25.049Z,1.45
2023-05-23T15:59:01.506Z,2.47
2023-05-23T16:01:36.265Z,1.77
2023-05-23T16:04:10.681Z,1.20
2023-05-23T16:06:44.969Z,1.30
2023-05-23T16:09:21.220Z,1.90
2023-05-23T16:11:52.233Z,1.20
2023-05-23T16:14:22.326Z,1.27
2023-05-23T16:16:53.981Z,1.33
2023-05-23T16:19:35.392Z,1.80
2023-05-23T16:24:34.957Z,2.13
2023-05-23T16:27:04.565Z,1.27
2023-05-23T16:29:37.935Z,1.15
2023-05-23T16:34:54.367Z,1.88
2023-05-23T16:37:34.002Z,1.27
2023-05-23T16:40:13.004Z,1.70
2023-05-23T16:42:43.400Z,1.65
2023-05-23T16:45:11.327Z,1.80
2023-05-23T16:47:49.754Z,1.30
2023-05-23T16:50:20.584Z,1.77
2023-05-23T16:55:40.452Z,1.40
2023-05-23T16:58:15.172Z,1.20
2023-05-23T17:00:45.555Z,1.17
2023-05-23T17:03:17.371Z,1.30
2023-05-23T17:05:50.900Z,1.80
2023-05-23T17:08:23.848Z,1.35
2023-05-23T17:10:57.348Z,1.17
2023-05-23T17:13:33.132Z,1.70
2023-05-23T17:16:03.628Z,1.75
2023-05-23T17:18:43.732Z,1.27
2023-05-23T17:21:17.106Z,1.48
2023-05-23T17:23:48.966Z,1.77
2023-05-23T17:26:20.091Z,1.92
2023-05-23T17:28:51.103Z,1.75
2023-05-23T17:31:21.161Z,1.70
2023-05-23T17:33:51.701Z,1.65
2023-05-23T17:36:25.475Z,1.80
2023-05-23T17:39:04.040Z,1.40
2023-05-23T17:44:18.751Z,1.98
2023-05-23T17:46:47.960Z,1.23
2023-05-23T17:49:18.570Z,1.80
2023-05-23T17:51:50.189Z,1.80
2023-05-23T17:56:49.990Z,1.40
2023-05-23T17:59:21.580Z,1.60
2023-05-23T18:07:34.169Z,1.42
2023-05-23T18:10:03.749Z,1.55
2023-05-23T18:12:47.028Z,1.90
2023-05-23T18:15:17.959Z,1.60
2023-05-23T18:18:00.972Z,2.05
2023-05-23T18:20:34.184Z,1.25
2023-05-23T18:23:08.429Z,1.52
2023-05-23T18:25:37.323Z,2.00
2023-05-23T18:28:11.303Z,1.92
2023-05-23T18:31:01.657Z,1.93
2023-05-23T18:33:31.505Z,1.75
2023-05-23T18:36:05.473Z,2.15
2023-05-23T18:38:36.365Z,1.35
2023-05-23T18:41:13.928Z,1.40
2023-05-23T18:43:44.631Z,1.40
2023-05-23T18:46:21.570Z,1.50
2023-05-23T18:48:55.514Z,1.60
2023-05-23T18:51:30.019Z,1.65
2023-05-23T18:54:07.314Z,2.10
2023-05-23T18:56:53.190Z,1.92
2023-05-23T18:59:36.750Z,1.47
2023-05-23T19:02:07.182Z,1.70
2023-05-23T19:04:38.993Z,1.80
2023-05-23T19:07:21.318Z,1.13
2023-05-23T19:09:58.822Z,1.17
2023-05-23T19:12:34.743Z,1.60
2023-05-23T19:15:21.583Z,1.60
2023-05-23T19:17:56.523Z,2.20
2023-05-23T19:20:26.403Z,2.00
2023-05-23T19:23:00.346Z,1.60
2023-05-23T19:28:19.413Z,1.90
2023-05-23T19:30:48.521Z,1.47
2023-05-23T19:33:24.026Z,1.77
2023-05-23T19:35:54.989Z,1.70
2023-05-23T19:38:25.618Z,2.50
2023-05-23T19:40:55.588Z,2.03
2023-05-23T19:43:27.307Z,2.33
2023-05-23T19:45:59.638Z,1.83
2023-05-23T19:48:30.236Z,1.77
2023-05-23T19:50:59.609Z,2.13
2023-05-23T19:53:30.570Z,1.30
2023-05-23T19:56:05.977Z,1.90
2023-05-23T19:58:38.048Z,1.80
2023-05-23T20:01:08.268Z,1.83
2023-05-23T20:03:38.838Z,1.63
2023-05-23T20:06:17.307Z,1.70
2023-05-23T20:08:47.688Z,1.90
2023-05-23T20:11:17.559Z,1.60
2023-05-23T20:13:50.147Z,2.35
2023-05-23T20:16:28.274Z,2.22
2023-05-23T20:19:01.251Z,2.57
2023-05-23T20:21:41.888Z,2.70
2023-05-23T20:24:21.626Z,2.30
2023-05-23T20:26:50.126Z,2.50
2023-05-23T20:29:18.441Z,2.92
2023-05-23T20:31:53.130Z,2.30
2023-05-23T20:34:34.601Z,1.63
2023-05-23T20:37:07.470Z,1.52
2023-05-23T20:39:41.294Z,2.40
2023-05-23T20:42:11.812Z,2.03
2023-05-23T20:44:43.019Z,1.70
2023-05-23T20:47:13.078Z,2.17
2023-05-23T20:49:44.895Z,2.05
2023-05-23T20:52:15.302Z,2.05
2023-05-23T20:54:52.246Z,2.17
2023-05-23T20:57:29.135Z,2.40
2023-05-23T21:00:00.602Z,1.60
2023-05-23T21:02:32.581Z,1.77
2023-05-23T21:05:03.773Z,1.50
2023-05-23T21:07:36.492Z,1.70
2023-05-23T21:10:07.616Z,2.05
2023-05-23T21:12:53.303Z,2.10
2023-05-23T21:15:27.728Z,1.77
2023-05-23T21:18:01.063Z,1.93
2023-05-23T21:20:39.092Z,2.10
2023-05-23T21:23:14.680Z,2.93
2023-05-23T21:26:00.366Z,1.80
2023-05-23T21:28:31.568Z,2.70
2023-05-23T21:31:03.421Z,2.13
2023-05-23T21:33:47.205Z,1.75
2023-05-23T21:36:20.790Z,1.80
2023-05-23T21:38:49.521Z,2.07
2023-05-23T21:41:27.853Z,1.77
2023-05-23T21:44:10.059Z,2.40
2023-05-23T21:46:43.273Z,1.90
2023-05-23T21:49:17.472Z,2.13
2023-05-23T21:51:55.675Z,2.25
2023-05-23T21:54:29.478Z,2.28
2023-05-23T21:56:58.702Z,2.40
2023-05-23T21:59:38.843Z,2.30
2023-05-23T22:02:13.508Z,2.13
2023-05-23T22:07:32.521Z,1.87
2023-05-23T22:10:02.752Z,1.93
2023-05-23T22:12:32.453Z,1.60
2023-05-23T22:15:02.817Z,1.63
2023-05-23T22:17:37.360Z,2.00
2023-05-23T22:20:08.828Z,2.10
2023-05-23T22:22:40.602Z,2.00
2023-05-23T22:25:12.886Z,1.98
2023-05-23T22:27:46.665Z,1.83
2023-05-23T22:30:15.922Z,2.33
2023-05-23T22:32:49.677Z,2.27
2023-05-23T22:35:18.545Z,1.90
2023-05-23T22:37:53.013Z,2.00
2023-05-23T22:40:23.735Z,2.03
2023-05-23T22:42:57.407Z,1.77
2023-05-23T22:48:11.552Z,2.13
2023-05-23T22:50:47.165Z,2.10
2023-05-23T22:55:48.909Z,1.60
2023-05-23T22:58:18.397Z,1.90
2023-05-23T23:00:49.103Z,1.77
2023-05-23T23:03:22.848Z,1.40
2023-05-23T23:05:57.246Z,1.50
2023-05-23T23:08:30.705Z,1.40
2023-05-23T23:11:01.574Z,2.03
2023-05-23T23:13:29.932Z,1.77
2023-05-23T23:16:04.664Z,1.83
2023-05-23T23:18:32.674Z,2.03
2023-05-23T23:21:05.710Z,2.47
2023-05-23T23:23:38.263Z,2.00
2023-05-23T23:26:12.312Z,2.33
2023-05-23T23:28:45.982Z,2.03
2023-05-23T23:31:17.070Z,1.80
2023-05-23T23:33:51.224Z,2.13
2023-05-23T23:36:22.105Z,2.33
2023-05-23T23:38:56.024Z,2.00
2023-05-23T23:41:29.244Z,1.80
2023-05-23T23:43:59.792Z,1.70
2023-05-23T23:46:31.119Z,1.50
2023-05-23T23:49:07.498Z,1.38
2023-05-23T23:51:37.910Z,1.90
2023-05-23T23:54:08.119Z,2.00
2023-05-23T23:56:38.993Z,2.17
2023-05-23T23:59:12.413Z,1.48
